createdAt,value
2023-07-19T00:02:24.296Z,100849.63
2023-07-19T00:07:25.861Z,100837.09
2023-07-19T00:17:29.414Z,100852.31
2023-07-19T00:22:32.073Z,100845.50
2023-07-19T00:27:33.968Z,100844.03
2023-07-19T00:32:35.815Z,100830.56
2023-07-19T00:37:37.313Z,100825.19
2023-07-19T00:42:38.827Z,100818.06
2023-07-19T00:47:40.786Z,100810.56
2023-07-19T00:52:42.892Z,100814.22
2023-07-19T00:57:44.524Z,100819.53
2023-07-19T01:02:46.174Z,100814.50
2023-07-19T01:07:47.833Z,100810.47
2023-07-19T01:13:09.263Z,100814.25
2023-07-19T01:18:10.837Z,100807.34
2023-07-19T01:23:13.172Z,100792.09
2023-07-19T01:28:16.201Z,100782.88
2023-07-19T01:33:28.470Z,100783.78
2023-07-19T01:38:36.236Z,100783.38
2023-07-19T01:43:37.843Z,100779.78
2023-07-19T01:48:39.371Z,100780.50
2023-07-19T01:53:40.873Z,100776.44
2023-07-19T01:58:44.270Z,100778.00
2023-07-19T02:03:45.764Z,100773.84
2023-07-19T02:08:48.209Z,100771.66
2023-07-19T02:13:49.871Z,100779.13
2023-07-19T02:18:51.370Z,100785.38
2023-07-19T02:23:52.847Z,100802.34
2023-07-19T02:28:55.783Z,100801.09
2023-07-19T02:33:57.308Z,100800.81
2023-07-19T02:38:58.817Z,100798.16
2023-07-19T02:44:00.583Z,100794.19
2023-07-19T02:49:02.191Z,100782.63
2023-07-19T02:54:03.724Z,100779.81
2023-07-19T02:59:06.191Z,100774.78
2023-07-19T03:04:07.975Z,100771.59
2023-07-19T03:09:12.030Z,100771.94
2023-07-19T03:14:13.564Z,100781.84
2023-07-19T03:19:15.104Z,100785.41
2023-07-19T03:24:17.224Z,100788.66
2023-07-19T03:29:18.704Z,100781.34
2023-07-19T03:34:20.448Z,100784.66
2023-07-19T03:39:21.990Z,100788.28
2023-07-19T03:44:23.536Z,100781.84
2023-07-19T03:49:26.376Z,100787.03
2023-07-19T03:54:28.017Z,100790.38
2023-07-19T03:59:31.087Z,100789.81
2023-07-19T04:04:32.763Z,100782.25
2023-07-19T04:09:34.380Z,100792.41
2023-07-19T04:14:35.933Z,100792.81
2023-07-19T04:19:37.612Z,100787.34
2023-07-19T04:24:39.647Z,100786.94
2023-07-19T04:29:41.331Z,100788.91
2023-07-19T04:34:42.860Z,100801.06
2023-07-19T04:39:44.807Z,100801.38
2023-07-19T04:44:47.460Z,100807.06
2023-07-19T04:49:49.017Z,100802.84
2023-07-19T04:54:51.095Z,100799.84
2023-07-19T04:59:52.712Z,100805.13
2023-07-19T05:04:54.473Z,100797.88
2023-07-19T05:09:56.165Z,100785.97
2023-07-19T05:14:57.924Z,100789.63
2023-07-19T05:19:59.958Z,100812.41
2023-07-19T05:25:04.421Z,100814.66
2023-07-19T05:30:06.548Z,100802.31
2023-07-19T05:35:08.133Z,100808.88
2023-07-19T05:40:10.701Z,100802.50
2023-07-19T05:45:12.197Z,100806.50
2023-07-19T05:50:13.729Z,100810.81
2023-07-19T05:55:16.199Z,100808.09
2023-07-19T06:00:30.020Z,100820.16
2023-07-19T06:05:31.677Z,100819.66
2023-07-19T06:10:33.176Z,100808.50
2023-07-19T06:15:34.826Z,100815.72
2023-07-19T06:20:36.809Z,100808.88
2023-07-19T06:25:38.676Z,100815.91
2023-07-19T06:30:40.201Z,100817.91
2023-07-19T06:35:41.836Z,100819.84
2023-07-19T06:40:43.361Z,100814.97
2023-07-19T06:45:48.664Z,100819.41
2023-07-19T06:50:51.011Z,100823.66
2023-07-19T06:55:58.793Z,100831.94
2023-07-19T07:01:00.397Z,100815.84
2023-07-19T07:06:04.064Z,100830.94
2023-07-19T07:11:05.926Z,100853.28
2023-07-19T07:16:07.799Z,100834.63
2023-07-19T07:21:09.919Z,100846.06
2023-07-19T07:26:11.379Z,100851.00
2023-07-19T07:31:13.140Z,100843.94
2023-07-19T07:36:15.053Z,100841.25
2023-07-19T07:41:17.406Z,100840.50
2023-07-19T07:46:18.901Z,100854.19
2023-07-19T07:51:20.823Z,100835.88
2023-07-19T07:56:24.606Z,100827.19
2023-07-19T08:01:26.525Z,100836.91
2023-07-19T08:06:28.216Z,100839.81
2023-07-19T08:11:29.892Z,100841.22
2023-07-19T08:16:31.470Z,100825.78
2023-07-19T08:21:36.732Z,100821.88
2023-07-19T08:26:39.512Z,100819.16
2023-07-19T08:31:40.998Z,100830.84
2023-07-19T08:36:42.495Z,100835.84
2023-07-19T08:41:44.650Z,100850.72
2023-07-19T08:46:47.399Z,100844.31
2023-07-19T08:51:49.071Z,100826.31
2023-07-19T08:56:50.913Z,100837.75
2023-07-19T09:01:52.945Z,100836.03
2023-07-19T09:06:54.466Z,100829.28
2023-07-19T09:11:55.913Z,100814.22
2023-07-19T09:16:57.376Z,100829.94
2023-07-19T09:22:04.663Z,100825.13
2023-07-19T09:27:06.334Z,100824.72
2023-07-19T09:32:08.540Z,100821.47
2023-07-19T09:37:11.162Z,100828.88
2023-07-19T09:42:14.555Z,100816.38
2023-07-19T09:47:28.284Z,100797.06
2023-07-19T09:52:36.903Z,100805.38
2023-07-19T09:57:41.156Z,100807.06
2023-07-19T10:02:42.801Z,100809.75
2023-07-19T10:07:51.868Z,100805.94
2023-07-19T10:12:54.003Z,100802.88
2023-07-19T10:17:57.477Z,100800.06
2023-07-19T10:23:09.540Z,100804.78
2023-07-19T10:28:13.745Z,100801.69
2023-07-19T10:33:20.383Z,100806.84
2023-07-19T10:38:26.939Z,100797.47
2023-07-19T10:43:46.904Z,100800.44
2023-07-19T10:48:53.571Z,100798.97
2023-07-19T10:53:59.171Z,100794.28
2023-07-19T10:59:02.037Z,100787.59
2023-07-19T11:04:08.355Z,100785.38
2023-07-19T11:09:10.631Z,100802.31
2023-07-19T11:14:28.104Z,100794.53
2023-07-19T11:19:47.881Z,100795.63
2023-07-19T11:24:53.978Z,100779.22
2023-07-19T11:29:55.917Z,100786.88
2023-07-19T11:35:01.784Z,100775.69
2023-07-19T11:40:06.677Z,100772.63
2023-07-19T11:45:20.143Z,100775.56
2023-07-19T11:50:24.597Z,100774.38
2023-07-19T11:55:26.435Z,100784.84
2023-07-19T12:00:28.371Z,100775.03
2023-07-19T12:05:30.300Z,100768.88
2023-07-19T12:10:31.923Z,100767.41
2023-07-19T12:15:33.457Z,100772.25
2023-07-19T12:20:35.041Z,100765.84
2023-07-19T12:25:36.572Z,100751.13
2023-07-19T12:30:38.674Z,100754.94
2023-07-19T12:35:40.644Z,100763.16
2023-07-19T12:40:43.065Z,100759.88
2023-07-19T12:45:44.846Z,100766.56
2023-07-19T12:50:46.492Z,100760.28
2023-07-19T12:55:47.994Z,100753.34
2023-07-19T13:00:49.777Z,100734.84
2023-07-19T13:05:51.329Z,100743.91
2023-07-19T13:10:52.878Z,100739.44
2023-07-19T13:15:54.364Z,100745.19
2023-07-19T13:20:57.143Z,100734.94
2023-07-19T13:25:58.887Z,100739.69
2023-07-19T13:31:01.339Z,100727.09
2023-07-19T13:36:03.057Z,100730.31
2023-07-19T13:41:04.686Z,100739.63
2023-07-19T13:46:06.224Z,100731.59
2023-07-19T13:51:07.768Z,100737.13
2023-07-19T13:56:09.649Z,100739.91
2023-07-19T14:01:13.052Z,100747.69
2023-07-19T14:06:17.317Z,100739.00
2023-07-19T14:11:18.855Z,100754.88
2023-07-19T14:16:20.423Z,100749.19
2023-07-19T14:21:22.795Z,100745.81
2023-07-19T14:26:25.005Z,100746.22
2023-07-19T14:31:26.999Z,100754.31
2023-07-19T14:36:28.687Z,100745.84
2023-07-19T14:41:30.895Z,100756.97
2023-07-19T14:46:34.408Z,100746.47
2023-07-19T14:51:36.507Z,100742.59
2023-07-19T14:56:38.077Z,100742.59
2023-07-19T15:01:39.845Z,100728.72
2023-07-19T15:06:42.913Z,100716.50
2023-07-19T15:11:46.351Z,100729.91
2023-07-19T15:16:49.803Z,100741.31
2023-07-19T15:21:51.409Z,100729.31
2023-07-19T15:26:53.695Z,100718.97
2023-07-19T15:31:56.728Z,100712.59
2023-07-19T15:36:58.371Z,100722.84
2023-07-19T15:42:00.659Z,100734.16
2023-07-19T15:47:03.424Z,100745.34
2023-07-19T15:52:07.203Z,100751.06
2023-07-19T15:57:08.725Z,100737.44
2023-07-19T16:02:10.563Z,100753.41
2023-07-19T16:07:14.412Z,100755.94
2023-07-19T16:12:16.138Z,100754.84
2023-07-19T16:17:17.656Z,100744.41
2023-07-19T16:22:19.166Z,100746.16
2023-07-19T16:27:20.664Z,100742.44
2023-07-19T16:32:22.236Z,100745.75
2023-07-19T16:37:23.899Z,100745.16
2023-07-19T16:42:25.663Z,100749.09
2023-07-19T16:47:28.703Z,100753.41
2023-07-19T16:52:30.505Z,100749.84
2023-07-19T16:57:32.141Z,100765.66
2023-07-19T17:02:33.707Z,100757.88
2023-07-19T17:07:35.376Z,100761.19
2023-07-19T17:12:36.993Z,100759.22
2023-07-19T17:17:38.826Z,100751.81
2023-07-19T17:22:41.202Z,100764.00
2023-07-19T17:27:42.866Z,100757.75
2023-07-19T17:32:46.618Z,100759.97
2023-07-19T17:37:50.178Z,100758.59
2023-07-19T17:42:51.777Z,100766.59
2023-07-19T17:47:53.300Z,100771.25
2023-07-19T17:52:55.183Z,100774.59
2023-07-19T17:57:57.990Z,100775.44
2023-07-19T18:02:59.740Z,100780.81
2023-07-19T18:08:15.802Z,100783.94
2023-07-19T18:13:21.994Z,100788.53
2023-07-19T18:18:23.734Z,100796.13
2023-07-19T18:23:26.163Z,100789.50
2023-07-19T18:28:27.731Z,100798.78
2023-07-19T18:33:29.505Z,100799.31
2023-07-19T18:38:31.368Z,100809.78
2023-07-19T18:43:33.094Z,100807.66
2023-07-19T18:48:34.850Z,100803.75
2023-07-19T18:53:37.277Z,100801.44
2023-07-19T18:58:38.803Z,100803.84
2023-07-19T19:03:40.452Z,100802.75
2023-07-19T19:08:42.151Z,100805.50
2023-07-19T19:13:43.854Z,100809.41
2023-07-19T19:18:45.523Z,100807.16
2023-07-19T19:23:47.128Z,100811.69
2023-07-19T19:28:48.662Z,100821.13
2023-07-19T19:33:50.211Z,100826.13
2023-07-19T19:38:51.833Z,100821.06
2023-07-19T19:43:53.496Z,100825.34
2023-07-19T19:48:55.171Z,100826.44
2023-07-19T19:53:56.923Z,100822.56
2023-07-19T19:58:58.990Z,100822.00
2023-07-19T20:09:05.438Z,100831.66
2023-07-19T20:14:16.569Z,100833.63
2023-07-19T20:24:26.935Z,100843.66
2023-07-19T20:30:01.777Z,100846.38
2023-07-19T20:34:57.147Z,100845.28
2023-07-19T20:39:59.067Z,100850.69
2023-07-19T20:45:00.653Z,100852.22
2023-07-19T20:50:03.654Z,100853.75
2023-07-19T20:55:05.998Z,100842.78
2023-07-19T21:00:08.266Z,100845.69
2023-07-19T21:05:09.761Z,100849.78
2023-07-19T21:10:11.486Z,100850.81
2023-07-19T21:15:13.278Z,100858.97
2023-07-19T21:20:14.943Z,100854.00
2023-07-19T21:25:18.144Z,100866.16
2023-07-19T21:30:19.789Z,100860.94
2023-07-19T21:35:21.408Z,100858.16
2023-07-19T21:40:23.113Z,100853.69
2023-07-19T21:45:25.176Z,100853.22
2023-07-19T21:50:26.933Z,100863.75
2023-07-19T21:55:28.621Z,100866.59
2023-07-19T22:00:41.594Z,100867.16
2023-07-19T22:05:45.290Z,100865.53
2023-07-19T22:10:47.858Z,100868.66
2023-07-19T22:15:49.849Z,100863.59
2023-07-19T22:21:01.060Z,100866.13
2023-07-19T22:26:09.330Z,100867.28
2023-07-19T22:31:10.960Z,100856.59
2023-07-19T22:36:12.519Z,100869.09
2023-07-19T22:41:15.556Z,100864.59
2023-07-19T22:46:19.691Z,100871.72
2023-07-19T22:51:22.527Z,100863.91
2023-07-19T22:56:24.679Z,100875.19
2023-07-19T23:01:26.419Z,100875.75
2023-07-19T23:06:28.286Z,100864.38
2023-07-19T23:11:29.940Z,100874.97
2023-07-19T23:16:31.925Z,100873.91
2023-07-19T23:21:33.525Z,100880.19
2023-07-19T23:26:35.077Z,100888.25
2023-07-19T23:31:36.572Z,100870.13
2023-07-19T23:36:38.617Z,100871.38
2023-07-19T23:41:40.325Z,100864.06
2023-07-19T23:46:42.201Z,100852.81
2023-07-19T23:51:43.825Z,100859.75
2023-07-19T23:56:45.460Z,100860.25
